sensor_id;sensor_type;location;lat;lon;timestamp;temperature;humidity
19342;DHT22;9807;48.258;12.690;2023-12-28T00:01:40;6.80;99.90
19342;DHT22;9807;48.258;12.690;2023-12-28T00:04:05;7.00;99.90
19342;DHT22;9807;48.258;12.690;2023-12-28T00:06:31;7.10;99.90
19342;DHT22;9807;48.258;12.690;2023-12-28T00:08:57;7.20;99.90
19342;DHT22;9807;48.258;12.690;2023-12-28T00:11:29;6.40;99.90
19342;DHT22;9807;48.258;12.690;2023-12-28T00:13:55;5.40;99.90
19342;DHT22;9807;48.258;12.690;2023-12-28T00:16:20;5.00;99.90
19342;DHT22;9807;48.258;12.690;2023-12-28T00:18:46;4.60;99.90
19342;DHT22;9807;48.258;12.690;2023-12-28T00:21:12;4.20;99.90
19342;DHT22;9807;48.258;12.690;2023-12-28T00:23:37;3.90;99.90
19342;DHT22;9807;48.258;12.690;2023-12-28T00:26:03;3.60;99.90
19342;DHT22;9807;48.258;12.690;2023-12-28T00:28:29;3.90;99.90
19342;DHT22;9807;48.258;12.690;2023-12-28T00:30:54;4.60;99.90
19342;DHT22;9807;48.258;12.690;2023-12-28T00:33:20;5.20;99.90
19342;DHT22;9807;48.258;12.690;2023-12-28T00:35:45;5.70;99.90
19342;DHT22;9807;48.258;12.690;2023-12-28T00:38:11;6.10;99.90
19342;DHT22;9807;48.258;12.690;2023-12-28T00:40:37;6.50;99.90
19342;DHT22;9807;48.258;12.690;2023-12-28T00:43:05;6.60;99.90
19342;DHT22;9807;48.258;12.690;2023-12-28T00:45:31;6.50;99.90
19342;DHT22;9807;48.258;12.690;2023-12-28T00:47:56;6.50;99.90
19342;DHT22;9807;48.258;12.690;2023-12-28T00:50:22;6.40;99.90
19342;DHT22;9807;48.258;12.690;2023-12-28T00:52:48;5.70;99.90
19342;DHT22;9807;48.258;12.690;2023-12-28T00:55:13;5.70;99.90
19342;DHT22;9807;48.258;12.690;2023-12-28T00:57:39;5.70;99.90
19342;DHT22;9807;48.258;12.690;2023-12-28T01:00:05;4.80;99.90
19342;DHT22;9807;48.258;12.690;2023-12-28T01:02:31;4.40;99.90
19342;DHT22;9807;48.258;12.690;2023-12-28T01:04:57;4.60;99.90
19342;DHT22;9807;48.258;12.690;2023-12-28T01:07:26;4.80;99.90
19342;DHT22;9807;48.258;12.690;2023-12-28T01:09:51;5.20;99.90
19342;DHT22;9807;48.258;12.690;2023-12-28T01:12:17;5.80;99.90
19342;DHT22;9807;48.258;12.690;2023-12-28T01:14:43;6.30;99.90
19342;DHT22;9807;48.258;12.690;2023-12-28T01:17:08;6.60;99.90
19342;DHT22;9807;48.258;12.690;2023-12-28T01:19:34;6.90;99.90
19342;DHT22;9807;48.258;12.690;2023-12-28T01:22:01;7.20;99.90
19342;DHT22;9807;48.258;12.690;2023-12-28T01:24:26;7.40;99.90
19342;DHT22;9807;48.258;12.690;2023-12-28T01:26:52;7.30;99.90
19342;DHT22;9807;48.258;12.690;2023-12-28T01:29:18;7.10;99.90
19342;DHT22;9807;48.258;12.690;2023-12-28T01:31:43;6.90;99.90
19342;DHT22;9807;48.258;12.690;2023-12-28T01:34:09;6.80;99.90
19342;DHT22;9807;48.258;12.690;2023-12-28T01:36:35;7.00;99.90
19342;DHT22;9807;48.258;12.690;2023-12-28T01:39:00;7.30;99.90
19342;DHT22;9807;48.258;12.690;2023-12-28T01:41:26;7.50;99.90
19342;DHT22;9807;48.258;12.690;2023-12-28T01:43:52;7.60;99.90
19342;DHT22;9807;48.258;12.690;2023-12-28T01:46:19;7.80;99.90
19342;DHT22;9807;48.258;12.690;2023-12-28T01:48:49;7.90;99.90
19342;DHT22;9807;48.258;12.690;2023-12-28T01:51:15;7.90;99.90
19342;DHT22;9807;48.258;12.690;2023-12-28T01:53:42;8.00;99.90
19342;DHT22;9807;48.258;12.690;2023-12-28T01:56:09;7.90;99.90
19342;DHT22;9807;48.258;12.690;2023-12-28T01:58:35;7.90;99.90
19342;DHT22;9807;48.258;12.690;2023-12-28T02:01:02;7.90;99.90
19342;DHT22;9807;48.258;12.690;2023-12-28T02:03:30;7.90;99.90
19342;DHT22;9807;48.258;12.690;2023-12-28T02:05:56;8.00;99.90
19342;DHT22;9807;48.258;12.690;2023-12-28T02:08:22;8.00;99.90
19342;DHT22;9807;48.258;12.690;2023-12-28T02:10:48;7.90;99.90
19342;DHT22;9807;48.258;12.690;2023-12-28T02:13:14;7.20;99.90
19342;DHT22;9807;48.258;12.690;2023-12-28T02:15:40;7.20;99.90
19342;DHT22;9807;48.258;12.690;2023-12-28T02:18:15;7.30;99.90
19342;DHT22;9807;48.258;12.690;2023-12-28T02:20:43;7.50;99.90
19342;DHT22;9807;48.258;12.690;2023-12-28T02:23:10;7.70;99.90
19342;DHT22;9807;48.258;12.690;2023-12-28T02:25:36;7.70;99.90
19342;DHT22;9807;48.258;12.690;2023-12-28T02:28:02;7.80;99.90
19342;DHT22;9807;48.258;12.690;2023-12-28T02:30:31;7.80;99.90
19342;DHT22;9807;48.258;12.690;2023-12-28T02:33:12;7.90;99.90
19342;DHT22;9807;48.258;12.690;2023-12-28T02:35:52;7.90;99.90
19342;DHT22;9807;48.258;12.690;2023-12-28T02:38:19;7.90;99.90
19342;DHT22;9807;48.258;12.690;2023-12-28T02:40:45;8.00;99.90
19342;DHT22;9807;48.258;12.690;2023-12-28T02:43:13;7.90;99.90
19342;DHT22;9807;48.258;12.690;2023-12-28T02:45:39;7.90;99.90
19342;DHT22;9807;48.258;12.690;2023-12-28T02:48:05;7.90;99.90
19342;DHT22;9807;48.258;12.690;2023-12-28T02:50:31;7.90;99.90
19342;DHT22;9807;48.258;12.690;2023-12-28T02:52:58;7.80;99.90
19342;DHT22;9807;48.258;12.690;2023-12-28T02:55:29;7.80;99.90
19342;DHT22;9807;48.258;12.690;2023-12-28T02:57:56;7.80;99.90
19342;DHT22;9807;48.258;12.690;2023-12-28T03:00:26;7.70;99.90
19342;DHT22;9807;48.258;12.690;2023-12-28T03:02:52;7.70;99.90
19342;DHT22;9807;48.258;12.690;2023-12-28T03:05:18;7.70;99.90
19342;DHT22;9807;48.258;12.690;2023-12-28T03:07:43;7.80;99.90
19342;DHT22;9807;48.258;12.690;2023-12-28T03:10:10;7.70;99.90
19342;DHT22;9807;48.258;12.690;2023-12-28T03:12:37;7.70;99.90
19342;DHT22;9807;48.258;12.690;2023-12-28T03:15:04;7.70;99.90
19342;DHT22;9807;48.258;12.690;2023-12-28T03:17:33;7.70;99.90
19342;DHT22;9807;48.258;12.690;2023-12-28T03:20:03;7.50;99.90
19342;DHT22;9807;48.258;12.690;2023-12-28T03:22:28;7.50;99.90
19342;DHT22;9807;48.258;12.690;2023-12-28T03:24:54;7.50;99.90
19342;DHT22;9807;48.258;12.690;2023-12-28T03:27:20;7.50;99.90
19342;DHT22;9807;48.258;12.690;2023-12-28T03:29:48;7.30;99.90
19342;DHT22;9807;48.258;12.690;2023-12-28T03:32:14;7.30;99.90
19342;DHT22;9807;48.258;12.690;2023-12-28T03:34:39;7.10;99.90
19342;DHT22;9807;48.258;12.690;2023-12-28T03:37:08;5.90;99.90
19342;DHT22;9807;48.258;12.690;2023-12-28T03:39:36;5.40;99.90
19342;DHT22;9807;48.258;12.690;2023-12-28T03:42:02;5.40;99.90
19342;DHT22;9807;48.258;12.690;2023-12-28T03:44:28;5.90;99.90
19342;DHT22;9807;48.258;12.690;2023-12-28T03:46:54;6.30;99.90
19342;DHT22;9807;48.258;12.690;2023-12-28T03:49:20;6.50;99.90
19342;DHT22;9807;48.258;12.690;2023-12-28T03:51:48;6.70;99.90
19342;DHT22;9807;48.258;12.690;2023-12-28T03:54:18;6.90;99.90
19342;DHT22;9807;48.258;12.690;2023-12-28T03:56:45;7.00;99.90
19342;DHT22;9807;48.258;12.690;2023-12-28T03:59:11;7.10;99.90
19342;DHT22;9807;48.258;12.690;2023-12-28T04:01:36;7.20;99.90
19342;DHT22;9807;48.258;12.690;2023-12-28T04:04:05;7.20;99.90
19342;DHT22;9807;48.258;12.690;2023-12-28T04:06:34;6.60;99.90
19342;DHT22;9807;48.258;12.690;2023-12-28T04:09:02;6.00;99.90
19342;DHT22;9807;48.258;12.690;2023-12-28T04:11:28;6.10;99.90
19342;DHT22;9807;48.258;12.690;2023-12-28T04:13:54;6.40;99.90
19342;DHT22;9807;48.258;12.690;2023-12-28T04:16:20;6.60;99.90
19342;DHT22;9807;48.258;12.690;2023-12-28T04:18:46;6.70;99.90
19342;DHT22;9807;48.258;12.690;2023-12-28T04:21:14;6.70;99.90
19342;DHT22;9807;48.258;12.690;2023-12-28T04:23:41;6.70;99.90
19342;DHT22;9807;48.258;12.690;2023-12-28T04:26:07;6.80;99.90
19342;DHT22;9807;48.258;12.690;2023-12-28T04:28:33;6.80;99.90
19342;DHT22;9807;48.258;12.690;2023-12-28T04:31:04;6.80;99.90
19342;DHT22;9807;48.258;12.690;2023-12-28T04:33:30;6.50;99.90
19342;DHT22;9807;48.258;12.690;2023-12-28T04:35:56;6.40;99.90
19342;DHT22;9807;48.258;12.690;2023-12-28T04:38:22;6.50;99.90
19342;DHT22;9807;48.258;12.690;2023-12-28T04:40:48;6.70;99.90
19342;DHT22;9807;48.258;12.690;2023-12-28T04:43:13;6.80;99.90
19342;DHT22;9807;48.258;12.690;2023-12-28T04:45:39;6.80;99.90
19342;DHT22;9807;48.258;12.690;2023-12-28T04:48:05;5.90;99.90
19342;DHT22;9807;48.258;12.690;2023-12-28T04:50:30;5.30;99.90
19342;DHT22;9807;48.258;12.690;2023-12-28T04:52:56;5.40;99.90
19342;DHT22;9807;48.258;12.690;2023-12-28T04:55:22;5.60;99.90
19342;DHT22;9807;48.258;12.690;2023-12-28T04:57:49;6.00;99.90
19342;DHT22;9807;48.258;12.690;2023-12-28T05:00:18;5.70;99.90
19342;DHT22;9807;48.258;12.690;2023-12-28T05:02:44;4.50;99.90
19342;DHT22;9807;48.258;12.690;2023-12-28T05:05:12;4.50;99.90
19342;DHT22;9807;48.258;12.690;2023-12-28T05:07:37;5.10;99.90
19342;DHT22;9807;48.258;12.690;2023-12-28T05:10:04;5.70;99.90
19342;DHT22;9807;48.258;12.690;2023-12-28T05:12:30;6.10;99.90
19342;DHT22;9807;48.258;12.690;2023-12-28T05:14:55;6.40;99.90
19342;DHT22;9807;48.258;12.690;2023-12-28T05:17:21;6.60;99.90
19342;DHT22;9807;48.258;12.690;2023-12-28T05:19:46;6.60;99.90
19342;DHT22;9807;48.258;12.690;2023-12-28T05:22:12;6.70;99.90
19342;DHT22;9807;48.258;12.690;2023-12-28T05:24:41;6.80;99.90
19342;DHT22;9807;48.258;12.690;2023-12-28T05:27:06;6.80;99.90
19342;DHT22;9807;48.258;12.690;2023-12-28T05:29:35;6.90;99.90
19342;DHT22;9807;48.258;12.690;2023-12-28T05:32:04;7.00;99.90
19342;DHT22;9807;48.258;12.690;2023-12-28T05:34:36;6.90;99.90
19342;DHT22;9807;48.258;12.690;2023-12-28T05:37:02;7.00;99.90
19342;DHT22;9807;48.258;12.690;2023-12-28T05:39:27;7.00;99.90
19342;DHT22;9807;48.258;12.690;2023-12-28T05:41:56;7.00;99.90
19342;DHT22;9807;48.258;12.690;2023-12-28T05:44:24;7.00;99.90
19342;DHT22;9807;48.258;12.690;2023-12-28T05:46:50;6.90;99.90
19342;DHT22;9807;48.258;12.690;2023-12-28T05:49:20;7.00;99.90
19342;DHT22;9807;48.258;12.690;2023-12-28T05:51:46;6.70;99.90
19342;DHT22;9807;48.258;12.690;2023-12-28T05:54:11;6.00;99.90
19342;DHT22;9807;48.258;12.690;2023-12-28T05:56:37;5.70;99.90
19342;DHT22;9807;48.258;12.690;2023-12-28T05:59:02;5.80;99.90
19342;DHT22;9807;48.258;12.690;2023-12-28T06:01:31;6.00;99.90
19342;DHT22;9807;48.258;12.690;2023-12-28T06:03:57;6.10;99.90
19342;DHT22;9807;48.258;12.690;2023-12-28T06:06:22;6.40;99.90
19342;DHT22;9807;48.258;12.690;2023-12-28T06:08:48;6.50;99.90
19342;DHT22;9807;48.258;12.690;2023-12-28T06:11:13;6.70;99.90
19342;DHT22;9807;48.258;12.690;2023-12-28T06:13:39;6.80;99.90
19342;DHT22;9807;48.258;12.690;2023-12-28T06:16:05;6.90;99.90
19342;DHT22;9807;48.258;12.690;2023-12-28T06:18:31;7.00;99.90
19342;DHT22;9807;48.258;12.690;2023-12-28T06:21:00;7.00;99.90
19342;DHT22;9807;48.258;12.690;2023-12-28T06:23:26;6.90;99.90
19342;DHT22;9807;48.258;12.690;2023-12-28T06:25:52;7.00;99.90
19342;DHT22;9807;48.258;12.690;2023-12-28T06:28:17;7.00;99.90
19342;DHT22;9807;48.258;12.690;2023-12-28T06:30:43;7.00;99.90
19342;DHT22;9807;48.258;12.690;2023-12-28T06:33:11;7.00;99.90
19342;DHT22;9807;48.258;12.690;2023-12-28T06:35:37;7.00;99.90
19342;DHT22;9807;48.258;12.690;2023-12-28T06:38:03;7.00;99.90
19342;DHT22;9807;48.258;12.690;2023-12-28T06:40:29;7.00;99.90
19342;DHT22;9807;48.258;12.690;2023-12-28T06:42:54;7.00;99.90
19342;DHT22;9807;48.258;12.690;2023-12-28T06:45:20;6.90;99.90
19342;DHT22;9807;48.258;12.690;2023-12-28T06:47:48;6.90;99.90
19342;DHT22;9807;48.258;12.690;2023-12-28T06:50:13;6.90;99.90
19342;DHT22;9807;48.258;12.690;2023-12-28T06:52:39;6.90;99.90
19342;DHT22;9807;48.258;12.690;2023-12-28T06:55:05;6.80;99.90
19342;DHT22;9807;48.258;12.690;2023-12-28T06:57:30;6.90;99.90
19342;DHT22;9807;48.258;12.690;2023-12-28T06:59:56;6.80;99.90
19342;DHT22;9807;48.258;12.690;2023-12-28T07:02:25;6.70;99.90
19342;DHT22;9807;48.258;12.690;2023-12-28T07:04:51;6.80;99.90
19342;DHT22;9807;48.258;12.690;2023-12-28T07:07:16;6.70;99.90
19342;DHT22;9807;48.258;12.690;2023-12-28T07:09:42;6.80;99.90
19342;DHT22;9807;48.258;12.690;2023-12-28T07:12:08;6.90;99.90
19342;DHT22;9807;48.258;12.690;2023-12-28T07:14:34;6.70;99.90
19342;DHT22;9807;48.258;12.690;2023-12-28T07:17:01;6.80;99.90
19342;DHT22;9807;48.258;12.690;2023-12-28T07:19:27;6.90;99.90
19342;DHT22;9807;48.258;12.690;2023-12-28T07:21:53;6.90;99.90
19342;DHT22;9807;48.258;12.690;2023-12-28T07:24:20;7.00;99.90
19342;DHT22;9807;48.258;12.690;2023-12-28T07:26:46;7.00;99.90
19342;DHT22;9807;48.258;12.690;2023-12-28T07:29:11;6.90;99.90
19342;DHT22;9807;48.258;12.690;2023-12-28T07:31:37;6.90;99.90
19342;DHT22;9807;48.258;12.690;2023-12-28T07:34:02;7.00;99.90
19342;DHT22;9807;48.258;12.690;2023-12-28T07:36:28;7.00;99.90
19342;DHT22;9807;48.258;12.690;2023-12-28T07:38:55;7.10;99.90
19342;DHT22;9807;48.258;12.690;2023-12-28T07:41:20;7.00;99.90
19342;DHT22;9807;48.258;12.690;2023-12-28T07:43:46;7.00;99.90
19342;DHT22;9807;48.258;12.690;2023-12-28T07:46:11;7.00;99.90
19342;DHT22;9807;48.258;12.690;2023-12-28T07:48:37;7.00;99.90
19342;DHT22;9807;48.258;12.690;2023-12-28T07:51:04;7.10;99.90
19342;DHT22;9807;48.258;12.690;2023-12-28T07:53:31;7.10;99.90
19342;DHT22;9807;48.258;12.690;2023-12-28T07:55:56;7.10;99.90
19342;DHT22;9807;48.258;12.690;2023-12-28T07:58:22;7.20;99.90
19342;DHT22;9807;48.258;12.690;2023-12-28T08:00:48;7.10;99.90
19342;DHT22;9807;48.258;12.690;2023-12-28T08:03:14;7.20;99.90
19342;DHT22;9807;48.258;12.690;2023-12-28T08:05:43;7.10;99.90
19342;DHT22;9807;48.258;12.690;2023-12-28T08:08:09;7.10;99.90
19342;DHT22;9807;48.258;12.690;2023-12-28T08:10:35;7.00;99.90
19342;DHT22;9807;48.258;12.690;2023-12-28T08:13:05;7.10;99.90
19342;DHT22;9807;48.258;12.690;2023-12-28T08:15:30;7.10;99.90
19342;DHT22;9807;48.258;12.690;2023-12-28T08:17:56;7.20;99.90
19342;DHT22;9807;48.258;12.690;2023-12-28T08:20:21;7.10;99.90
19342;DHT22;9807;48.258;12.690;2023-12-28T08:22:47;7.20;99.90
19342;DHT22;9807;48.258;12.690;2023-12-28T08:25:13;7.20;99.90
19342;DHT22;9807;48.258;12.690;2023-12-28T08:27:39;7.20;99.90
19342;DHT22;9807;48.258;12.690;2023-12-28T08:30:05;7.20;99.90
19342;DHT22;9807;48.258;12.690;2023-12-28T08:32:32;7.10;99.90
19342;DHT22;9807;48.258;12.690;2023-12-28T08:35:00;7.10;99.90
19342;DHT22;9807;48.258;12.690;2023-12-28T08:37:30;7.10;99.90
19342;DHT22;9807;48.258;12.690;2023-12-28T08:39:56;7.20;99.90
19342;DHT22;9807;48.258;12.690;2023-12-28T08:42:22;7.30;99.90
19342;DHT22;9807;48.258;12.690;2023-12-28T08:44:50;7.30;99.90
19342;DHT22;9807;48.258;12.690;2023-12-28T08:47:15;6.90;99.90
19342;DHT22;9807;48.258;12.690;2023-12-28T08:49:42;6.90;99.90
19342;DHT22;9807;48.258;12.690;2023-12-28T08:52:07;7.10;99.90
19342;DHT22;9807;48.258;12.690;2023-12-28T08:54:33;7.20;99.90
19342;DHT22;9807;48.258;12.690;2023-12-28T08:57:03;7.30;99.90
19342;DHT22;9807;48.258;12.690;2023-12-28T08:59:29;7.40;99.90
19342;DHT22;9807;48.258;12.690;2023-12-28T09:01:54;7.50;99.90
19342;DHT22;9807;48.258;12.690;2023-12-28T09:04:20;7.50;99.90
19342;DHT22;9807;48.258;12.690;2023-12-28T09:06:46;7.60;99.90
19342;DHT22;9807;48.258;12.690;2023-12-28T09:09:11;7.70;99.90
19342;DHT22;9807;48.258;12.690;2023-12-28T09:11:37;7.80;99.90
19342;DHT22;9807;48.258;12.690;2023-12-28T09:14:03;7.80;99.90
19342;DHT22;9807;48.258;12.690;2023-12-28T09:16:29;7.90;99.90
19342;DHT22;9807;48.258;12.690;2023-12-28T09:18:54;7.90;99.90
19342;DHT22;9807;48.258;12.690;2023-12-28T09:21:21;8.00;99.90
19342;DHT22;9807;48.258;12.690;2023-12-28T09:23:46;8.00;99.90
19342;DHT22;9807;48.258;12.690;2023-12-28T09:26:12;7.90;99.90
19342;DHT22;9807;48.258;12.690;2023-12-28T09:28:37;8.00;99.90
19342;DHT22;9807;48.258;12.690;2023-12-28T09:31:03;7.90;99.90
19342;DHT22;9807;48.258;12.690;2023-12-28T09:33:29;7.90;99.90
19342;DHT22;9807;48.258;12.690;2023-12-28T09:35:55;7.90;99.90
19342;DHT22;9807;48.258;12.690;2023-12-28T09:38:21;7.90;99.90
19342;DHT22;9807;48.258;12.690;2023-12-28T09:40:52;7.90;99.90
19342;DHT22;9807;48.258;12.690;2023-12-28T09:45:52;8.00;99.90
19342;DHT22;9807;48.258;12.690;2023-12-28T09:48:20;8.10;99.90
19342;DHT22;9807;48.258;12.690;2023-12-28T09:50:49;8.10;99.90
19342;DHT22;9807;48.258;12.690;2023-12-28T09:53:16;8.20;99.90
19342;DHT22;9807;48.258;12.690;2023-12-28T09:55:42;8.20;99.90
19342;DHT22;9807;48.258;12.690;2023-12-28T09:58:10;8.20;99.90
19342;DHT22;9807;48.258;12.690;2023-12-28T10:00:38;8.30;99.90
19342;DHT22;9807;48.258;12.690;2023-12-28T10:03:04;8.40;99.90
19342;DHT22;9807;48.258;12.690;2023-12-28T10:05:30;8.40;99.90
19342;DHT22;9807;48.258;12.690;2023-12-28T10:07:56;8.50;99.90
19342;DHT22;9807;48.258;12.690;2023-12-28T10:10:22;8.60;99.90
19342;DHT22;9807;48.258;12.690;2023-12-28T10:12:48;8.60;99.90
19342;DHT22;9807;48.258;12.690;2023-12-28T10:15:14;8.70;99.90
19342;DHT22;9807;48.258;12.690;2023-12-28T10:17:40;8.70;99.90
19342;DHT22;9807;48.258;12.690;2023-12-28T10:20:07;8.70;99.90
19342;DHT22;9807;48.258;12.690;2023-12-28T10:22:38;8.70;99.90
19342;DHT22;9807;48.258;12.690;2023-12-28T10:25:04;8.70;99.90
19342;DHT22;9807;48.258;12.690;2023-12-28T10:27:30;8.80;99.90
19342;DHT22;9807;48.258;12.690;2023-12-28T10:29:56;8.90;99.90
19342;DHT22;9807;48.258;12.690;2023-12-28T10:32:22;9.00;99.90
19342;DHT22;9807;48.258;12.690;2023-12-28T10:34:51;9.00;99.90
19342;DHT22;9807;48.258;12.690;2023-12-28T10:37:19;9.00;99.90
19342;DHT22;9807;48.258;12.690;2023-12-28T10:39:47;9.00;99.90
19342;DHT22;9807;48.258;12.690;2023-12-28T10:42:42;8.90;99.90
19342;DHT22;9807;48.258;12.690;2023-12-28T10:45:10;8.90;99.90
19342;DHT22;9807;48.258;12.690;2023-12-28T10:47:43;8.90;99.90
19342;DHT22;9807;48.258;12.690;2023-12-28T10:50:11;8.60;99.90
19342;DHT22;9807;48.258;12.690;2023-12-28T10:52:37;8.40;99.90
19342;DHT22;9807;48.258;12.690;2023-12-28T10:57:44;8.90;99.90
19342;DHT22;9807;48.258;12.690;2023-12-28T11:00:14;9.10;99.90
19342;DHT22;9807;48.258;12.690;2023-12-28T11:02:45;9.30;99.90
19342;DHT22;9807;48.258;12.690;2023-12-28T11:05:15;9.40;99.90
19342;DHT22;9807;48.258;12.690;2023-12-28T11:07:45;9.50;99.90
19342;DHT22;9807;48.258;12.690;2023-12-28T11:10:13;9.50;99.90
19342;DHT22;9807;48.258;12.690;2023-12-28T11:12:39;9.60;99.90
19342;DHT22;9807;48.258;12.690;2023-12-28T11:15:06;9.60;99.90
19342;DHT22;9807;48.258;12.690;2023-12-28T11:17:33;9.50;99.90
19342;DHT22;9807;48.258;12.690;2023-12-28T11:20:02;9.40;99.90
19342;DHT22;9807;48.258;12.690;2023-12-28T11:22:31;9.50;99.90
19342;DHT22;9807;48.258;12.690;2023-12-28T11:24:56;9.60;99.90
19342;DHT22;9807;48.258;12.690;2023-12-28T11:27:22;9.70;99.90
19342;DHT22;9807;48.258;12.690;2023-12-28T11:29:49;9.70;99.90
19342;DHT22;9807;48.258;12.690;2023-12-28T11:32:19;9.80;99.90
19342;DHT22;9807;48.258;12.690;2023-12-28T11:34:56;9.80;99.90
19342;DHT22;9807;48.258;12.690;2023-12-28T11:37:23;9.90;99.90
19342;DHT22;9807;48.258;12.690;2023-12-28T11:39:51;9.90;99.90
19342;DHT22;9807;48.258;12.690;2023-12-28T11:42:24;10.00;99.90
19342;DHT22;9807;48.258;12.690;2023-12-28T11:44:54;10.00;99.90
19342;DHT22;9807;48.258;12.690;2023-12-28T11:47:24;10.10;99.90
19342;DHT22;9807;48.258;12.690;2023-12-28T11:49:52;10.10;99.90
19342;DHT22;9807;48.258;12.690;2023-12-28T11:52:29;10.10;99.90
19342;DHT22;9807;48.258;12.690;2023-12-28T11:54:55;10.20;99.90
19342;DHT22;9807;48.258;12.690;2023-12-28T11:57:22;10.10;99.90
19342;DHT22;9807;48.258;12.690;2023-12-28T11:59:53;10.20;99.90
19342;DHT22;9807;48.258;12.690;2023-12-28T12:02:20;10.20;99.90
19342;DHT22;9807;48.258;12.690;2023-12-28T12:04:46;10.30;99.90
19342;DHT22;9807;48.258;12.690;2023-12-28T12:07:11;10.30;99.90
19342;DHT22;9807;48.258;12.690;2023-12-28T12:09:37;10.30;99.90
19342;DHT22;9807;48.258;12.690;2023-12-28T12:12:04;10.30;99.90
19342;DHT22;9807;48.258;12.690;2023-12-28T12:14:30;10.20;99.90
19342;DHT22;9807;48.258;12.690;2023-12-28T12:16:56;10.20;99.90
19342;DHT22;9807;48.258;12.690;2023-12-28T12:19:24;10.20;99.90
19342;DHT22;9807;48.258;12.690;2023-12-28T12:21:52;10.00;99.90
19342;DHT22;9807;48.258;12.690;2023-12-28T12:24:18;9.80;99.90
19342;DHT22;9807;48.258;12.690;2023-12-28T12:26:46;9.80;99.90
19342;DHT22;9807;48.258;12.690;2023-12-28T12:29:12;9.90;99.90
19342;DHT22;9807;48.258;12.690;2023-12-28T12:31:38;10.10;99.90
19342;DHT22;9807;48.258;12.690;2023-12-28T12:34:07;10.20;99.90
19342;DHT22;9807;48.258;12.690;2023-12-28T12:36:33;10.40;99.90
19342;DHT22;9807;48.258;12.690;2023-12-28T12:39:04;10.50;99.90
19342;DHT22;9807;48.258;12.690;2023-12-28T12:41:34;10.60;99.90
19342;DHT22;9807;48.258;12.690;2023-12-28T12:44:04;10.60;99.90
19342;DHT22;9807;48.258;12.690;2023-12-28T12:46:31;10.70;99.90
19342;DHT22;9807;48.258;12.690;2023-12-28T12:49:05;10.70;99.90
19342;DHT22;9807;48.258;12.690;2023-12-28T12:51:31;10.70;99.90
19342;DHT22;9807;48.258;12.690;2023-12-28T12:54:02;10.70;99.90
19342;DHT22;9807;48.258;12.690;2023-12-28T12:56:31;10.70;99.90
19342;DHT22;9807;48.258;12.690;2023-12-28T12:59:03;10.60;99.90
19342;DHT22;9807;48.258;12.690;2023-12-28T13:01:28;10.60;99.90
19342;DHT22;9807;48.258;12.690;2023-12-28T13:03:56;10.60;99.90
19342;DHT22;9807;48.258;12.690;2023-12-28T13:06:22;10.60;99.90
19342;DHT22;9807;48.258;12.690;2023-12-28T13:08:48;10.60;99.90
19342;DHT22;9807;48.258;12.690;2023-12-28T13:11:17;10.70;99.90
19342;DHT22;9807;48.258;12.690;2023-12-28T13:13:46;10.70;99.90
19342;DHT22;9807;48.258;12.690;2023-12-28T13:16:12;10.70;99.90
19342;DHT22;9807;48.258;12.690;2023-12-28T13:18:41;10.60;99.90
19342;DHT22;9807;48.258;12.690;2023-12-28T13:21:07;10.50;99.90
19342;DHT22;9807;48.258;12.690;2023-12-28T13:23:33;10.50;99.90
19342;DHT22;9807;48.258;12.690;2023-12-28T13:26:08;10.60;99.90
19342;DHT22;9807;48.258;12.690;2023-12-28T13:28:34;10.70;99.90
19342;DHT22;9807;48.258;12.690;2023-12-28T13:31:02;10.70;99.90
19342;DHT22;9807;48.258;12.690;2023-12-28T13:33:28;10.80;99.90
19342;DHT22;9807;48.258;12.690;2023-12-28T13:35:55;10.80;99.90
19342;DHT22;9807;48.258;12.690;2023-12-28T13:38:21;10.80;99.90
19342;DHT22;9807;48.258;12.690;2023-12-28T13:40:47;10.80;99.90
19342;DHT22;9807;48.258;12.690;2023-12-28T13:43:13;10.70;99.90
19342;DHT22;9807;48.258;12.690;2023-12-28T13:45:38;10.60;99.90
19342;DHT22;9807;48.258;12.690;2023-12-28T13:48:04;10.40;99.90
19342;DHT22;9807;48.258;12.690;2023-12-28T13:50:30;10.10;99.90
19342;DHT22;9807;48.258;12.690;2023-12-28T13:52:57;10.10;99.90
19342;DHT22;9807;48.258;12.690;2023-12-28T13:55:22;10.10;99.90
19342;DHT22;9807;48.258;12.690;2023-12-28T13:57:48;10.20;99.90
19342;DHT22;9807;48.258;12.690;2023-12-28T14:00:14;10.30;99.90
19342;DHT22;9807;48.258;12.690;2023-12-28T14:02:40;10.10;99.90
19342;DHT22;9807;48.258;12.690;2023-12-28T14:05:07;9.90;99.90
19342;DHT22;9807;48.258;12.690;2023-12-28T14:07:33;9.60;99.90
19342;DHT22;9807;48.258;12.690;2023-12-28T14:10:02;9.40;99.90
19342;DHT22;9807;48.258;12.690;2023-12-28T14:12:31;9.60;99.90
19342;DHT22;9807;48.258;12.690;2023-12-28T14:14:57;9.80;99.90
19342;DHT22;9807;48.258;12.690;2023-12-28T14:17:26;9.80;99.90
19342;DHT22;9807;48.258;12.690;2023-12-28T14:20:02;9.70;99.90
19342;DHT22;9807;48.258;12.690;2023-12-28T14:22:29;9.80;99.90
19342;DHT22;9807;48.258;12.690;2023-12-28T14:24:55;9.80;99.90
19342;DHT22;9807;48.258;12.690;2023-12-28T14:27:21;9.90;99.90
19342;DHT22;9807;48.258;12.690;2023-12-28T14:29:47;9.90;99.90
19342;DHT22;9807;48.258;12.690;2023-12-28T14:32:13;10.00;99.90
19342;DHT22;9807;48.258;12.690;2023-12-28T14:34:39;10.00;99.90
19342;DHT22;9807;48.258;12.690;2023-12-28T14:37:04;10.10;99.90
19342;DHT22;9807;48.258;12.690;2023-12-28T14:39:30;10.10;99.90
19342;DHT22;9807;48.258;12.690;2023-12-28T14:41:56;10.10;99.90
19342;DHT22;9807;48.258;12.690;2023-12-28T14:44:23;10.20;99.90
19342;DHT22;9807;48.258;12.690;2023-12-28T14:46:49;10.00;99.90
19342;DHT22;9807;48.258;12.690;2023-12-28T14:49:15;9.90;99.90
19342;DHT22;9807;48.258;12.690;2023-12-28T14:51:40;9.90;99.90
19342;DHT22;9807;48.258;12.690;2023-12-28T14:54:11;10.00;99.90
19342;DHT22;9807;48.258;12.690;2023-12-28T14:56:37;10.10;99.90
19342;DHT22;9807;48.258;12.690;2023-12-28T14:59:03;10.00;99.90
19342;DHT22;9807;48.258;12.690;2023-12-28T15:01:28;9.90;99.90
19342;DHT22;9807;48.258;12.690;2023-12-28T15:03:54;9.90;99.90
19342;DHT22;9807;48.258;12.690;2023-12-28T15:06:40;9.90;99.90
19342;DHT22;9807;48.258;12.690;2023-12-28T15:09:06;9.80;99.90
19342;DHT22;9807;48.258;12.690;2023-12-28T15:11:32;9.60;99.90
19342;DHT22;9807;48.258;12.690;2023-12-28T15:14:01;9.60;99.90
19342;DHT22;9807;48.258;12.690;2023-12-28T15:16:30;9.30;99.90
19342;DHT22;9807;48.258;12.690;2023-12-28T15:18:56;9.10;99.90
19342;DHT22;9807;48.258;12.690;2023-12-28T15:21:22;8.80;99.90
19342;DHT22;9807;48.258;12.690;2023-12-28T15:23:48;8.60;99.90
19342;DHT22;9807;48.258;12.690;2023-12-28T15:26:14;8.50;99.90
19342;DHT22;9807;48.258;12.690;2023-12-28T15:28:40;8.40;99.90
19342;DHT22;9807;48.258;12.690;2023-12-28T15:31:05;8.40;99.90
19342;DHT22;9807;48.258;12.690;2023-12-28T15:33:31;8.60;99.90
19342;DHT22;9807;48.258;12.690;2023-12-28T15:35:56;8.80;99.90
19342;DHT22;9807;48.258;12.690;2023-12-28T15:38:22;9.10;99.90
19342;DHT22;9807;48.258;12.690;2023-12-28T15:40:48;9.30;99.90
19342;DHT22;9807;48.258;12.690;2023-12-28T15:43:14;9.30;99.90
19342;DHT22;9807;48.258;12.690;2023-12-28T15:45:40;9.20;99.90